createdAt,value
2017-08-22T00:00:39.319Z,3.75
2017-08-22T00:01:39.626Z,3.67
2017-08-22T00:02:39.282Z,3.68
2017-08-22T00:03:39.282Z,3.78
2017-08-22T00:04:39.261Z,3.84
2017-08-22T00:05:39.549Z,3.77
2017-08-22T00:06:39.229Z,3.77
2017-08-22T00:07:39.531Z,3.82
2017-08-22T00:08:39.509Z,3.77
2017-08-22T00:09:39.196Z,3.8
2017-08-22T00:10:39.177Z,3.67
2017-08-22T00:11:39.463Z,3.75
2017-08-22T00:12:39.146Z,3.84
2017-08-22T00:13:39.129Z,3.86
2017-08-22T00:14:39.109Z,3.81
2017-08-22T00:15:39.101Z,3.77
2017-08-22T00:16:39.089Z,3.75
2017-08-22T00:17:39.392Z,3.8
2017-08-22T00:18:39.361Z,3.8
2017-08-22T00:19:39.358Z,3.86
2017-08-22T00:20:39.344Z,3.84
2017-08-22T00:21:39.326Z,3.8
2017-08-22T00:22:39.313Z,3.84
2017-08-22T00:23:39.284Z,3.88
2017-08-22T00:24:39.268Z,3.8
2017-08-22T00:25:39.257Z,3.82
2017-08-22T00:26:38.940Z,3.84
2017-08-22T00:27:38.953Z,3.74
2017-08-22T00:28:38.918Z,3.84
2017-08-22T00:29:39.192Z,3.68
2017-08-22T00:30:39.200Z,3.68
2017-08-22T00:31:39.185Z,3.8
2017-08-22T00:32:39.154Z,3.8
2017-08-22T00:33:39.148Z,3.82
2017-08-22T00:34:38.824Z,3.68
2017-08-22T00:35:39.107Z,3.78
2017-08-22T00:36:39.096Z,3.75
2017-08-22T00:37:39.095Z,3.81
2017-08-22T00:38:39.080Z,3.81
2017-08-22T00:39:39.054Z,3.8
2017-08-22T00:40:38.742Z,3.86
2017-08-22T00:41:39.035Z,3.77
2017-08-22T00:42:38.715Z,3.8
2017-08-22T00:43:38.689Z,3.86
2017-08-22T00:44:38.984Z,3.84
2017-08-22T00:45:38.365Z,3.88
2017-08-22T00:46:38.954Z,3.8
2017-08-22T00:47:38.643Z,3.89
2017-08-22T00:48:38.929Z,3.8
2017-08-22T00:49:38.606Z,3.82
2017-08-22T00:50:38.898Z,3.82
2017-08-22T00:51:38.894Z,3.84
2017-08-22T00:52:38.563Z,3.9
2017-08-22T00:53:38.557Z,3.82
2017-08-22T00:54:38.838Z,3.82
2017-08-22T00:55:38.517Z,3.84
2017-08-22T00:56:38.507Z,3.9
2017-08-22T00:57:38.492Z,3.98
2017-08-22T00:58:38.480Z,3.93
2017-08-22T00:59:38.771Z,3.86
2017-08-22T01:00:38.751Z,3.9
2017-08-22T01:01:38.744Z,3.92
2017-08-22T01:02:38.721Z,3.84
2017-08-22T01:03:38.707Z,3.99
2017-08-22T01:04:38.702Z,3.95
2017-08-22T01:05:38.680Z,3.92
2017-08-22T01:06:38.711Z,3.93
2017-08-22T01:07:38.658Z,3.95
2017-08-22T01:08:38.625Z,3.88
2017-08-22T01:09:38.631Z,3.93
2017-08-22T01:10:38.614Z,3.89
2017-08-22T01:11:38.587Z,3.93
2017-08-22T01:12:38.591Z,3.9
2017-08-22T01:13:38.561Z,3.95
2017-08-22T01:14:38.246Z,3.84
2017-08-22T01:15:38.535Z,3.93
2017-08-22T01:16:38.525Z,3.98
2017-08-22T01:17:38.505Z,3.96
2017-08-22T01:18:38.496Z,3.93
2017-08-22T01:19:38.489Z,3.93
2017-08-22T01:20:38.462Z,3.92
2017-08-22T01:21:38.441Z,3.89
2017-08-22T01:22:38.430Z,3.9
2017-08-22T01:23:38.421Z,4
2017-08-22T01:24:38.408Z,3.9
2017-08-22T01:25:38.393Z,3.84
2017-08-22T01:26:38.401Z,3.9
2017-08-22T01:27:38.354Z,3.86
2017-08-22T01:28:38.351Z,3.84
2017-08-22T01:29:38.328Z,3.96
2017-08-22T01:30:38.021Z,3.93
2017-08-22T01:31:38.310Z,3.9
2017-08-22T01:32:37.982Z,3.9
2017-08-22T01:33:38.283Z,3.9
2017-08-22T01:34:37.965Z,3.95
2017-08-22T01:35:38.244Z,3.98
2017-08-22T01:36:38.232Z,3.93
2017-08-22T01:37:37.612Z,3.99
2017-08-22T01:38:37.900Z,3.99
2017-08-22T01:39:38.185Z,4.13
2017-08-22T01:40:38.176Z,4.08
2017-08-22T01:41:38.167Z,4.06
2017-08-22T01:42:38.141Z,4.06
2017-08-22T01:43:38.133Z,4
2017-08-22T01:44:37.508Z,4.06
2017-08-22T01:45:38.106Z,4.16
2017-08-22T01:46:38.080Z,4.04
2017-08-22T01:47:37.764Z,4.07
2017-08-22T01:48:37.758Z,4.13
2017-08-22T01:49:38.044Z,4.13
2017-08-22T01:50:37.421Z,4.06
2017-08-22T01:51:37.407Z,4.18
2017-08-22T01:52:37.703Z,4.13
2017-08-22T01:53:37.376Z,4.2
2017-08-22T01:54:37.970Z,4.17
2017-08-22T01:55:37.961Z,4.14
2017-08-22T01:56:37.937Z,4.16
2017-08-22T01:57:37.629Z,4.16
2017-08-22T01:58:37.915Z,4.2
2017-08-22T01:59:37.604Z,4.2
2017-08-22T02:00:37.884Z,4.18
2017-08-22T02:01:37.574Z,4.2
2017-08-22T02:02:37.557Z,4.21
2017-08-22T02:03:37.832Z,4.11
2017-08-22T02:04:37.846Z,4.07
2017-08-22T02:05:37.825Z,4.24
2017-08-22T02:06:37.504Z,4.17
2017-08-22T02:07:37.480Z,4.17
2017-08-22T02:08:37.470Z,4.1
2017-08-22T02:09:37.764Z,4.1
2017-08-22T02:10:37.743Z,4.1
2017-08-22T02:11:37.728Z,4.18
2017-08-22T02:12:37.729Z,4.21
2017-08-22T02:13:37.703Z,4.14
2017-08-22T02:14:37.689Z,4.21
2017-08-22T02:15:37.670Z,4.24
2017-08-22T02:16:37.659Z,4.13
2017-08-22T02:17:37.647Z,4.13
2017-08-22T02:18:37.621Z,4.06
2017-08-22T02:19:37.619Z,4.14
2017-08-22T02:20:37.600Z,4.07
2017-08-22T02:21:37.583Z,4.08
2017-08-22T02:22:37.563Z,4.24
2017-08-22T02:23:37.568Z,4.17
2017-08-22T02:24:37.543Z,4.21
2017-08-22T02:25:37.533Z,4.2
2017-08-22T02:26:37.513Z,4.18
2017-08-22T02:27:37.507Z,4.13
2017-08-22T02:28:37.492Z,4.2
2017-08-22T02:29:37.472Z,4.24
2017-08-22T02:30:36.849Z,4.18
2017-08-22T02:31:36.831Z,4.14
2017-08-22T02:32:37.435Z,4.11
2017-08-22T02:33:37.424Z,4.25
2017-08-22T02:34:37.399Z,4.17
2017-08-22T02:35:37.093Z,4.21
2017-08-22T02:36:37.378Z,4.24
2017-08-22T02:37:37.359Z,4.21
2017-08-22T02:38:37.369Z,4.11
2017-08-22T02:39:37.330Z,4.17
2017-08-22T02:40:37.321Z,4.17
2017-08-22T02:41:37.305Z,4.16
2017-08-22T02:42:37.282Z,4.28
2017-08-22T02:43:37.272Z,4.16
2017-08-22T02:44:37.258Z,4.17
2017-08-22T02:45:37.247Z,4.26
2017-08-22T02:46:37.223Z,4.26
2017-08-22T02:47:36.911Z,4.29
2017-08-22T02:48:36.897Z,4.18
2017-08-22T02:49:36.895Z,4.16
2017-08-22T02:50:36.871Z,4.14
2017-08-22T02:51:36.861Z,4.16
2017-08-22T02:52:37.149Z,4.17
2017-08-22T02:53:36.525Z,4.17
2017-08-22T02:54:37.121Z,4.18
2017-08-22T02:55:37.103Z,4.11
2017-08-22T02:56:37.083Z,4.16
2017-08-22T02:57:37.082Z,4.17
2017-08-22T02:58:37.065Z,4.18
2017-08-22T02:59:37.050Z,4.16
2017-08-22T03:00:37.039Z,4.2
2017-08-22T03:01:37.020Z,4.21
2017-08-22T03:02:37.007Z,4.28
2017-08-22T03:03:37.001Z,4.28
2017-08-22T03:04:36.680Z,4.26
2017-08-22T03:05:36.662Z,4.26
2017-08-22T03:06:36.958Z,4.32
2017-08-22T03:07:36.637Z,4.26
2017-08-22T03:08:36.620Z,4.36
2017-08-22T03:09:36.896Z,4.32
2017-08-22T03:10:36.275Z,4.32
2017-08-22T03:11:36.584Z,4.34
2017-08-22T03:12:36.864Z,4.32
2017-08-22T03:13:36.557Z,4.29
2017-08-22T03:14:36.535Z,4.32
2017-08-22T03:15:36.524Z,4.38
2017-08-22T03:16:36.498Z,4.43
2017-08-22T03:17:36.485Z,4.42
2017-08-22T03:18:36.475Z,4.42
2017-08-22T03:19:36.762Z,4.44
2017-08-22T03:20:36.752Z,4.35
2017-08-22T03:21:36.738Z,4.35
2017-08-22T03:22:36.720Z,4.44
2017-08-22T03:23:36.714Z,4.36
2017-08-22T03:24:36.707Z,4.35
2017-08-22T03:25:36.680Z,4.49
2017-08-22T03:26:36.679Z,4.35
2017-08-22T03:27:36.659Z,4.5
2017-08-22T03:28:36.638Z,4.49
2017-08-22T03:29:36.632Z,4.39
2017-08-22T03:30:36.333Z,4.43
2017-08-22T03:31:36.600Z,4.47
2017-08-22T03:32:36.588Z,4.44
2017-08-22T03:33:36.571Z,4.46
2017-08-22T03:34:36.560Z,4.51
2017-08-22T03:35:36.548Z,4.39
2017-08-22T03:36:36.538Z,4.5
2017-08-22T03:37:36.522Z,4.39
2017-08-22T03:38:36.499Z,4.38
2017-08-22T03:39:36.193Z,4.39
2017-08-22T03:40:36.477Z,4.36
2017-08-22T03:41:36.459Z,4.35
2017-08-22T03:42:36.443Z,4.36
2017-08-22T03:43:36.424Z,4.46
2017-08-22T03:44:36.414Z,4.46
2017-08-22T03:45:36.419Z,4.36
2017-08-22T03:46:36.402Z,4.47
2017-08-22T03:47:36.385Z,4.49
2017-08-22T03:48:36.374Z,4.46
2017-08-22T03:49:36.343Z,4.53
2017-08-22T03:50:36.332Z,4.47
2017-08-22T03:51:36.324Z,4.49
2017-08-22T03:52:36.315Z,4.49
2017-08-22T03:53:36.288Z,4.51
2017-08-22T03:54:36.290Z,4.5
2017-08-22T03:55:36.267Z,4.53
2017-08-22T03:56:36.246Z,4.56
2017-08-22T03:57:35.932Z,4.54
2017-08-22T03:58:36.223Z,4.56
2017-08-22T03:59:35.914Z,4.51
2017-08-22T04:00:36.188Z,4.53
2017-08-22T04:01:35.891Z,4.59
2017-08-22T04:02:36.164Z,4.51
2017-08-22T04:03:35.863Z,4.54
2017-08-22T04:04:35.839Z,4.54
2017-08-22T04:05:35.813Z,4.51
2017-08-22T04:06:35.800Z,4.5
2017-08-22T04:07:36.098Z,4.47
2017-08-22T04:08:36.082Z,4.49
2017-08-22T04:09:35.761Z,4.51
2017-08-22T04:10:35.746Z,4.49
2017-08-22T04:11:36.046Z,4.56
2017-08-22T04:12:36.018Z,4.53
2017-08-22T04:13:35.710Z,4.49
2017-08-22T04:14:35.694Z,4.5
2017-08-22T04:15:35.985Z,4.57
2017-08-22T04:16:35.968Z,4.51
2017-08-22T04:17:35.947Z,4.5
2017-08-22T04:18:35.638Z,4.47
2017-08-22T04:19:35.924Z,4.51
2017-08-22T04:20:35.915Z,4.51
2017-08-22T04:21:35.904Z,4.54
2017-08-22T04:22:35.882Z,4.54
2017-08-22T04:23:35.882Z,4.59
2017-08-22T04:24:35.856Z,4.61
2017-08-22T04:25:35.856Z,4.61
2017-08-22T04:26:35.839Z,4.57
2017-08-22T04:27:35.828Z,4.61
2017-08-22T04:28:35.799Z,4.64
2017-08-22T04:29:35.787Z,4.57
2017-08-22T04:30:35.768Z,4.64
2017-08-22T04:31:35.775Z,4.57
2017-08-22T04:32:35.762Z,4.69
2017-08-22T04:33:35.727Z,4.77
2017-08-22T04:34:35.725Z,4.69
2017-08-22T04:35:35.705Z,4.68
2017-08-22T04:36:35.700Z,4.59
2017-08-22T04:37:35.686Z,4.71
2017-08-22T04:38:35.663Z,4.69
2017-08-22T04:39:35.652Z,4.69
2017-08-22T04:40:35.644Z,4.71
2017-08-22T04:41:35.623Z,4.65
2017-08-22T04:42:35.609Z,4.75
2017-08-22T04:43:35.609Z,4.86
2017-08-22T04:44:35.593Z,4.77
2017-08-22T04:45:35.557Z,4.72
2017-08-22T04:46:35.554Z,4.84
2017-08-22T04:47:35.541Z,4.72
2017-08-22T04:48:35.526Z,4.79
2017-08-22T04:49:35.512Z,4.77
2017-08-22T04:50:35.511Z,4.79
2017-08-22T04:51:35.477Z,4.84
2017-08-22T04:52:35.471Z,4.79
2017-08-22T04:53:35.464Z,4.84
2017-08-22T04:54:35.448Z,4.88
2017-08-22T04:55:35.431Z,4.87
2017-08-22T04:56:35.423Z,4.8
2017-08-22T04:57:35.397Z,4.83
2017-08-22T04:58:35.386Z,4.79
2017-08-22T04:59:35.382Z,4.8
2017-08-22T05:00:35.360Z,4.86
2017-08-22T05:01:35.354Z,4.77
2017-08-22T05:02:35.334Z,4.79
2017-08-22T05:03:35.343Z,4.8
2017-08-22T05:04:35.307Z,4.83
2017-08-22T05:05:35.295Z,4.8
2017-08-22T05:06:35.267Z,4.72
2017-08-22T05:07:34.949Z,4.71
2017-08-22T05:08:35.263Z,4.68
2017-08-22T05:09:35.228Z,4.74
2017-08-22T05:10:35.243Z,4.83
2017-08-22T05:11:35.218Z,4.86
2017-08-22T05:12:35.193Z,4.75
2017-08-22T05:13:35.174Z,4.8
2017-08-22T05:14:35.158Z,4.83
2017-08-22T05:15:35.150Z,4.83
2017-08-22T05:16:34.839Z,4.64
2017-08-22T05:17:35.139Z,4.77
2017-08-22T05:18:35.108Z,4.87
2017-08-22T05:19:35.089Z,4.84
2017-08-22T05:20:35.087Z,4.77
2017-08-22T05:21:35.060Z,4.79
2017-08-22T05:22:34.444Z,4.87
2017-08-22T05:23:34.740Z,4.9
2017-08-22T05:24:35.024Z,4.87
2017-08-22T05:25:35.012Z,4.79
2017-08-22T05:26:34.695Z,4.79
2017-08-22T05:27:34.992Z,4.8
2017-08-22T05:28:34.670Z,4.8
2017-08-22T05:29:34.945Z,4.79
2017-08-22T05:30:34.948Z,4.68
2017-08-22T05:31:34.936Z,4.75
2017-08-22T05:32:34.913Z,4.8
2017-08-22T05:33:34.909Z,4.71
2017-08-22T05:34:34.882Z,4.79
2017-08-22T05:35:34.872Z,4.86
2017-08-22T05:36:34.858Z,4.79
2017-08-22T05:37:34.839Z,4.72
2017-08-22T05:38:34.841Z,4.86
2017-08-22T05:39:34.818Z,4.8
2017-08-22T05:40:34.817Z,4.8
2017-08-22T05:41:34.782Z,4.83
2017-08-22T05:42:34.785Z,4.84
2017-08-22T05:43:34.771Z,4.88
2017-08-22T05:44:34.751Z,4.91
2017-08-22T05:45:34.737Z,4.94
2017-08-22T05:46:34.415Z,4.84
2017-08-22T05:47:34.712Z,4.88
2017-08-22T05:48:34.691Z,4.9
2017-08-22T05:49:34.688Z,4.86
2017-08-22T05:50:34.671Z,4.88
2017-08-22T05:51:34.659Z,4.8
2017-08-22T05:52:34.628Z,4.9
2017-08-22T05:53:34.622Z,4.94
2017-08-22T05:54:34.610Z,4.9
2017-08-22T05:55:34.608Z,4.94
2017-08-22T05:56:34.591Z,4.88
2017-08-22T05:57:34.569Z,4.93
2017-08-22T05:58:34.562Z,4.93
2017-08-22T05:59:34.545Z,5.04
2017-08-22T06:00:34.529Z,4.99
2017-08-22T06:01:34.544Z,4.9
2017-08-22T06:02:34.493Z,4.87
2017-08-22T06:03:34.494Z,4.93
2017-08-22T06:04:34.487Z,4.9
2017-08-22T06:05:34.457Z,4.97
2017-08-22T06:06:34.440Z,4.88
2017-08-22T06:07:34.421Z,4.87
2017-08-22T06:08:34.421Z,4.96
2017-08-22T06:09:34.421Z,4.94
2017-08-22T06:10:34.389Z,4.83
2017-08-22T06:11:34.071Z,4.91
2017-08-22T06:12:34.361Z,4.96
2017-08-22T06:13:34.359Z,4.99
2017-08-22T06:14:34.337Z,4.91
2017-08-22T06:15:34.320Z,4.97
2017-08-22T06:16:34.350Z,4.91
2017-08-22T06:17:34.295Z,4.9
2017-08-22T06:18:34.273Z,5.04
2017-08-22T06:19:34.258Z,4.94
2017-08-22T06:20:34.257Z,5.04
2017-08-22T06:21:34.250Z,5.06
2017-08-22T06:22:34.219Z,4.93
2017-08-22T06:23:34.213Z,4.96
2017-08-22T06:24:34.204Z,5.02
2017-08-22T06:25:34.185Z,4.91
2017-08-22T06:26:34.173Z,4.94
2017-08-22T06:27:33.846Z,4.84
2017-08-22T06:28:34.147Z,4.94
2017-08-22T06:29:34.129Z,5.06
2017-08-22T06:30:34.119Z,5.17
2017-08-22T06:31:34.104Z,5.19
2017-08-22T06:32:34.090Z,5.29
2017-08-22T06:33:33.773Z,5.32
2017-08-22T06:34:33.755Z,5.24
2017-08-22T06:35:34.045Z,5.2
2017-08-22T06:36:33.730Z,5.08
2017-08-22T06:37:34.022Z,5.04
2017-08-22T06:38:33.698Z,5.17
2017-08-22T06:39:33.692Z,5.17
2017-08-22T06:40:33.673Z,5.14
2017-08-22T06:41:33.963Z,5.22
2017-08-22T06:42:33.957Z,5.29
2017-08-22T06:43:33.932Z,5.15
2017-08-22T06:44:33.613Z,5.11
2017-08-22T06:45:33.930Z,5.11
2017-08-22T06:51:49.377Z,5.37
2017-08-22T06:52:19.852Z,5.41
2017-08-22T06:53:19.844Z,5.26
2017-08-22T06:54:20.139Z,5.15
2017-08-22T06:55:20.103Z,5.26
2017-08-22T06:56:20.109Z,5.22
2017-08-22T06:57:19.780Z,5.24
2017-08-22T06:58:19.770Z,5.17
2017-08-22T06:59:20.059Z,5.15
2017-08-22T07:00:20.039Z,5.19
2017-08-22T07:01:20.029Z,5.32
2017-08-22T07:02:20.009Z,5.27
2017-08-22T07:03:19.998Z,5.27
2017-08-22T07:04:19.986Z,5.26
2017-08-22T07:05:19.970Z,5.37
2017-08-22T07:06:19.964Z,5.33
2017-08-22T07:07:19.941Z,5.27
2017-08-22T07:08:19.941Z,5.33
2017-08-22T07:09:19.921Z,5.41
2017-08-22T07:10:19.906Z,5.37
2017-08-22T07:11:19.898Z,5.38
2017-08-22T07:12:19.880Z,5.3
2017-08-22T07:13:19.856Z,5.2
2017-08-22T07:14:19.851Z,5.14
2017-08-22T07:15:19.845Z,5.24
2017-08-22T07:16:19.829Z,5.14
2017-08-22T07:17:19.808Z,5.14
2017-08-22T07:18:19.795Z,5.26
2017-08-22T07:19:19.473Z,5.48
2017-08-22T07:20:19.461Z,5.4
2017-08-22T07:21:19.753Z,5.37
2017-08-22T07:22:19.744Z,5.32
2017-08-22T07:23:19.725Z,5.26
2017-08-22T07:24:19.711Z,5.32
2017-08-22T07:25:19.697Z,5.27
2017-08-22T07:26:19.676Z,5.41
2017-08-22T07:27:19.669Z,5.45
2017-08-22T07:28:19.355Z,5.42
2017-08-22T07:29:19.343Z,5.44
2017-08-22T07:30:19.323Z,5.4
2017-08-22T07:31:19.615Z,5.42
2017-08-22T07:32:19.293Z,5.44
2017-08-22T07:33:19.588Z,5.4
2017-08-22T07:34:19.571Z,5.47
2017-08-22T07:35:19.564Z,5.44
2017-08-22T07:36:19.553Z,5.44
2017-08-22T07:37:19.533Z,5.58
2017-08-22T07:38:19.220Z,5.48
2017-08-22T07:39:19.512Z,5.59
2017-08-22T07:40:18.883Z,5.78
2017-08-22T07:41:19.476Z,5.49
2017-08-22T07:42:19.169Z,5.65
2017-08-22T07:43:19.150Z,5.62
2017-08-22T07:44:19.438Z,5.85
2017-08-22T07:45:19.421Z,5.75
2017-08-22T07:46:19.410Z,5.67
2017-08-22T07:47:19.401Z,5.62
2017-08-22T07:48:19.376Z,5.69
2017-08-22T07:49:19.377Z,5.6
2017-08-22T07:50:19.354Z,5.83
2017-08-22T07:51:19.349Z,5.77
2017-08-22T07:52:19.381Z,5.52
2017-08-22T07:53:19.311Z,5.62
2017-08-22T07:54:19.302Z,5.65
2017-08-22T07:55:19.282Z,5.7
2017-08-22T07:56:19.276Z,5.62
2017-08-22T07:57:18.961Z,5.7
2017-08-22T07:58:19.252Z,5.69
2017-08-22T07:59:19.229Z,5.78
2017-08-22T08:00:19.221Z,5.75
2017-08-22T08:01:19.224Z,5.78
2017-08-22T08:02:19.201Z,5.77
2017-08-22T08:03:19.192Z,5.7
2017-08-22T08:04:18.867Z,5.77
2017-08-22T08:05:18.862Z,5.77
2017-08-22T08:06:19.139Z,5.8
2017-08-22T08:07:19.132Z,5.74
2017-08-22T08:08:18.820Z,5.93
2017-08-22T08:09:19.108Z,6.19
2017-08-22T08:10:19.092Z,6.3
2017-08-22T08:11:19.087Z,5.98
2017-08-22T08:12:19.068Z,5.85
2017-08-22T08:13:19.053Z,5.81
2017-08-22T08:14:19.039Z,5.73
2017-08-22T08:15:19.030Z,5.6
2017-08-22T08:16:19.008Z,5.67
2017-08-22T08:17:19.002Z,5.74
2017-08-22T08:18:18.991Z,6.02
2017-08-22T08:19:18.976Z,6.28
2017-08-22T08:20:18.960Z,6.36
2017-08-22T08:21:18.941Z,6.61
2017-08-22T08:22:18.933Z,6.53
2017-08-22T08:23:18.929Z,6.2
2017-08-22T08:24:18.905Z,6.6
2017-08-22T08:25:18.892Z,6.75
2017-08-22T08:26:18.900Z,6.43
2017-08-22T08:27:18.573Z,6.33
2017-08-22T08:28:18.861Z,6.16
2017-08-22T08:29:18.850Z,6.36
2017-08-22T08:30:18.845Z,6.64
2017-08-22T08:31:18.829Z,6.43
2017-08-22T08:32:18.819Z,6.36
2017-08-22T08:33:18.808Z,6.54
2017-08-22T08:34:18.479Z,6.73
2017-08-22T08:35:18.779Z,6.63
2017-08-22T08:36:18.762Z,6.35
2017-08-22T08:37:18.749Z,6.33
2017-08-22T08:38:18.731Z,6.32
2017-08-22T08:39:18.719Z,6.36
2017-08-22T08:40:18.709Z,6.2
2017-08-22T08:41:18.399Z,6.32
2017-08-22T08:42:18.685Z,6.33
2017-08-22T08:43:18.665Z,6.46
2017-08-22T08:44:18.353Z,6.55
2017-08-22T08:45:18.649Z,6.63
2017-08-22T08:46:18.650Z,6.45
2017-08-22T08:47:18.323Z,6.24
2017-08-22T08:48:18.306Z,6.54
2017-08-22T08:49:18.605Z,6.73
2017-08-22T08:50:18.590Z,6.69
2017-08-22T08:51:18.274Z,6.57
2017-08-22T08:52:18.582Z,6.71
2017-08-22T08:53:18.548Z,6.53
2017-08-22T08:54:18.544Z,6.55
2017-08-22T08:55:17.916Z,6.38
2017-08-22T08:56:18.503Z,6.54
2017-08-22T08:57:18.497Z,6.87
2017-08-22T08:58:18.485Z,6.76
2017-08-22T08:59:18.473Z,7.01
2017-08-22T09:00:18.463Z,7.08
2017-08-22T09:01:18.457Z,6.83
2017-08-22T09:02:18.129Z,6.83
2017-08-22T09:03:18.125Z,6.97
2017-08-22T09:04:18.112Z,6.87
2017-08-22T09:05:18.101Z,6.78
2017-08-22T09:06:18.411Z,6.86
2017-08-22T09:07:18.085Z,6.9
2017-08-22T09:08:18.072Z,6.69
2017-08-22T09:09:18.057Z,6.76
2017-08-22T09:10:18.040Z,6.71
2017-08-22T09:11:18.024Z,6.63
2017-08-22T09:12:18.011Z,6.54
2017-08-22T09:13:18.308Z,6.75
2017-08-22T09:14:17.987Z,7.04
2017-08-22T09:15:18.291Z,7.16
2017-08-22T09:16:18.277Z,7.08
2017-08-22T09:17:18.260Z,7.18
2017-08-22T09:18:17.954Z,6.97
2017-08-22T09:19:18.242Z,6.99
2017-08-22T09:20:18.227Z,6.96
2017-08-22T09:21:18.203Z,7.04
2017-08-22T09:22:18.201Z,7.44
2017-08-22T09:23:18.185Z,7.66
2017-08-22T09:24:17.896Z,7.71
2017-08-22T09:25:18.174Z,7.04
2017-08-22T09:26:18.162Z,6.99
2017-08-22T09:27:17.835Z,6.55
2017-08-22T09:28:18.130Z,6.72
2017-08-22T09:29:18.126Z,6.71
2017-08-22T09:30:18.110Z,6.5
2017-08-22T09:31:18.092Z,6.6
2017-08-22T09:32:18.303Z,6.48
2017-08-22T09:33:18.076Z,6.51
2017-08-22T09:34:18.059Z,6.53
2017-08-22T09:35:18.037Z,6.69
2017-08-22T09:36:18.035Z,6.57
2017-08-22T09:37:18.025Z,6.58
2017-08-22T09:38:18.014Z,6.75
2017-08-22T09:39:17.997Z,6.71
2017-08-22T09:40:17.990Z,6.54
2017-08-22T09:41:17.965Z,6.54
2017-08-22T09:42:17.971Z,6.68
2017-08-22T09:43:17.952Z,6.51
2017-08-22T09:44:17.639Z,6.43
2017-08-22T09:45:17.921Z,6.5
2017-08-22T09:46:17.920Z,6.33
2017-08-22T09:47:17.900Z,6.51
2017-08-22T09:48:17.895Z,6.81
2017-08-22T09:49:17.881Z,7.04
2017-08-22T09:50:17.859Z,7.3
2017-08-22T09:51:17.850Z,6.78
2017-08-22T09:52:17.848Z,6.57
2017-08-22T09:53:17.818Z,6.73
2017-08-22T09:54:17.816Z,6.75
2017-08-22T09:55:17.804Z,6.58
2017-08-22T09:56:17.804Z,6.68
2017-08-22T09:57:17.476Z,7.01
2017-08-22T09:58:17.770Z,6.82
2017-08-22T09:59:17.764Z,6.72
2017-08-22T10:00:17.732Z,6.54
2017-08-22T10:01:17.423Z,6.61
2017-08-22T10:02:17.725Z,6.53
2017-08-22T10:03:17.693Z,6.54
2017-08-22T10:04:17.690Z,6.46
2017-08-22T10:05:17.368Z,6.55
2017-08-22T10:06:17.658Z,6.55
2017-08-22T10:07:17.351Z,6.58
2017-08-22T10:08:17.648Z,6.54
2017-08-22T10:09:17.627Z,6.58
2017-08-22T10:10:17.319Z,6.61
2017-08-22T10:11:17.296Z,6.58
2017-08-22T10:12:17.599Z,6.55
2017-08-22T10:13:17.582Z,6.39
2017-08-22T10:14:17.570Z,6.39
2017-08-22T10:15:17.555Z,6.48
2017-08-22T10:16:17.544Z,6.69
2017-08-22T10:17:17.538Z,6.45
2017-08-22T10:18:17.513Z,6.57
2017-08-22T10:19:17.504Z,6.61
2017-08-22T10:20:17.501Z,6.61
2017-08-22T10:21:17.489Z,6.55
2017-08-22T10:22:17.477Z,6.73
2017-08-22T10:23:17.464Z,6.69
2017-08-22T10:24:17.452Z,6.69
2017-08-22T10:25:17.432Z,6.86
2017-08-22T10:26:17.122Z,6.86
2017-08-22T10:27:17.407Z,6.79
2017-08-22T10:28:17.396Z,6.5
2017-08-22T10:29:17.384Z,6.73
2017-08-22T10:30:17.381Z,6.89
2017-08-22T10:31:17.361Z,7
2017-08-22T10:32:17.040Z,6.97
2017-08-22T10:33:17.032Z,6.73
2017-08-22T10:34:17.328Z,6.72
2017-08-22T10:35:17.008Z,7.16
2017-08-22T10:36:17.307Z,7.19
2017-08-22T10:37:17.282Z,7.41
2017-08-22T10:38:17.284Z,7.14
2017-08-22T10:39:17.267Z,7.12
2017-08-22T10:40:17.268Z,7.42
2017-08-22T10:41:17.235Z,7.27
2017-08-22T10:42:17.225Z,7.39
2017-08-22T10:43:17.215Z,7.58
2017-08-22T10:44:17.212Z,7.42
2017-08-22T10:45:17.186Z,7.62
2017-08-22T10:46:17.183Z,7.55
2017-08-22T10:47:17.174Z,7.48
2017-08-22T10:48:17.159Z,7.62
2017-08-22T10:49:17.145Z,7.48
2017-08-22T10:50:17.137Z,7.32
2017-08-22T10:51:17.123Z,7.32
2017-08-22T10:52:17.102Z,7.51
2017-08-22T10:53:17.102Z,7.63
2017-08-22T10:54:17.076Z,7.67
2017-08-22T10:55:17.085Z,7.74
2017-08-22T10:56:17.059Z,7.52
2017-08-22T10:57:17.060Z,7.58
2017-08-22T10:58:17.034Z,7.69
2017-08-22T10:59:17.023Z,7.82
2017-08-22T11:00:17.009Z,8.03
2017-08-22T11:01:16.996Z,7.82
2017-08-22T11:02:16.984Z,7.73
2017-08-22T11:03:16.993Z,7.96
2017-08-22T11:04:16.967Z,8
2017-08-22T11:05:16.655Z,7.86
2017-08-22T11:06:16.641Z,7.6
2017-08-22T11:07:16.634Z,7.58
2017-08-22T11:08:16.315Z,7.7
2017-08-22T11:09:16.920Z,7.88
2017-08-22T11:10:16.911Z,8
2017-08-22T11:11:16.581Z,8.22
2017-08-22T11:12:16.877Z,8.27
2017-08-22T11:13:16.880Z,8.24
2017-08-22T11:14:16.849Z,8.04
2017-08-22T11:15:16.838Z,8.02
2017-08-22T11:16:16.544Z,7.6
2017-08-22T11:17:16.826Z,7.41
2017-08-22T11:18:16.508Z,7.55
2017-08-22T11:19:16.803Z,7.71
2017-08-22T11:20:16.490Z,7.54
2017-08-22T11:21:16.489Z,7.73
2017-08-22T11:22:16.772Z,7.82
2017-08-22T11:23:16.774Z,8.03
2017-08-22T11:24:16.744Z,7.85
2017-08-22T11:25:16.736Z,7.63
2017-08-22T11:26:16.717Z,7.77
2017-08-22T11:27:16.708Z,8.12
2017-08-22T11:28:16.710Z,8.49
2017-08-22T11:29:16.382Z,8.71
2017-08-22T11:30:16.384Z,8.8
2017-08-22T11:31:16.658Z,8.57
2017-08-22T11:32:16.655Z,8.34
2017-08-22T11:33:16.639Z,8.2
2017-08-22T11:34:16.643Z,8.1
2017-08-22T11:35:16.626Z,7.91
2017-08-22T11:36:16.611Z,8.03
2017-08-22T11:37:16.296Z,8.06
2017-08-22T11:38:16.287Z,8.21
2017-08-22T11:39:16.278Z,8.03
2017-08-22T11:40:16.268Z,8.25
2017-08-22T11:41:16.546Z,8.37
2017-08-22T11:42:16.545Z,8.32
2017-08-22T11:43:16.536Z,8.37
2017-08-22T11:44:16.520Z,8.37
2017-08-22T11:45:16.516Z,8.67
2017-08-22T11:46:16.195Z,8.83
2017-08-22T11:47:16.490Z,8.42
2017-08-22T11:48:16.169Z,8
2017-08-22T11:49:16.462Z,8.04
2017-08-22T11:50:16.456Z,8.32
2017-08-22T11:51:16.457Z,7.92
2017-08-22T11:52:16.442Z,8.13
2017-08-22T11:53:16.124Z,8.02
2017-08-22T11:54:16.118Z,8.24
2017-08-22T11:55:16.397Z,8.6
2017-08-22T11:56:16.391Z,9.23
2017-08-22T11:57:16.394Z,8.79
2017-08-22T11:58:16.059Z,8.49
2017-08-22T11:59:16.362Z,8.61
2017-08-22T12:00:16.049Z,8.34
2017-08-22T12:01:16.352Z,8.55
2017-08-22T12:02:16.018Z,8.22
2017-08-22T12:03:16.315Z,8.49
2017-08-22T12:04:16.005Z,8.88
2017-08-22T12:05:16.292Z,8.98
2017-08-22T12:06:15.675Z,8.65
2017-08-22T12:07:16.264Z,8.46
2017-08-22T12:08:16.259Z,8.37
2017-08-22T12:09:16.260Z,8.29
2017-08-22T12:10:16.233Z,8.13
2017-08-22T12:11:16.233Z,8.27
2017-08-22T12:12:16.228Z,8.02
2017-08-22T12:13:16.201Z,7.99
2017-08-22T12:14:16.193Z,8.07
2017-08-22T12:15:16.184Z,7.79
2017-08-22T12:16:16.174Z,7.73
2017-08-22T12:17:16.167Z,8.02
2017-08-22T12:18:16.153Z,8.43
2017-08-22T12:19:16.144Z,8.47
2017-08-22T12:20:16.132Z,8.27
2017-08-22T12:21:15.816Z,8.42
2017-08-22T12:22:16.112Z,8.32
2017-08-22T12:23:16.094Z,8.64
2017-08-22T12:24:16.084Z,8.7
2017-08-22T12:25:16.072Z,8.67
2017-08-22T12:26:15.764Z,8.96
2017-08-22T12:27:15.758Z,8.83
2017-08-22T12:28:16.041Z,8.83
2017-08-22T12:29:16.030Z,8.89
2017-08-22T12:30:15.745Z,9
2017-08-22T12:31:15.711Z,8.86
2017-08-22T12:32:15.992Z,8.73
2017-08-22T12:33:16.005Z,8.31
2017-08-22T12:34:15.685Z,7.5
2017-08-22T12:35:15.675Z,7.57
2017-08-22T12:36:15.963Z,7.55
2017-08-22T12:37:15.941Z,7.99
2017-08-22T12:38:15.634Z,8.37
2017-08-22T12:39:15.921Z,8.24
2017-08-22T12:40:15.922Z,8.2
2017-08-22T12:41:15.910Z,8.18
2017-08-22T12:42:15.906Z,8.07
2017-08-22T12:43:15.889Z,7.86
2017-08-22T12:44:15.866Z,7.92
2017-08-22T12:45:15.864Z,8.12
2017-08-22T12:46:15.860Z,8.13
2017-08-22T12:47:15.851Z,7.99
2017-08-22T12:48:15.519Z,7.94
2017-08-22T12:49:15.810Z,8.04
2017-08-22T12:50:15.808Z,8.28
2017-08-22T12:51:15.792Z,8.29
2017-08-22T12:52:15.793Z,8.36
2017-08-22T12:53:15.771Z,8.4
2017-08-22T12:54:15.757Z,8.47
2017-08-22T12:55:15.451Z,8.32
2017-08-22T12:56:15.733Z,8.4
2017-08-22T12:57:15.724Z,8.45
2017-08-22T12:58:15.722Z,8.55
2017-08-22T12:59:15.706Z,8.34
2017-08-22T13:00:15.694Z,8.28
2017-08-22T13:01:15.381Z,8.02
2017-08-22T13:02:15.680Z,8.04
2017-08-22T13:03:15.671Z,8.27
2017-08-22T13:04:15.341Z,7.88
2017-08-22T13:05:15.332Z,7.95
2017-08-22T13:06:15.631Z,8.28
2017-08-22T13:07:15.624Z,8.42
2017-08-22T13:08:15.300Z,8.47
2017-08-22T13:09:15.652Z,8.37
2017-08-22T13:10:15.283Z,8.03
2017-08-22T13:11:15.282Z,8.36
2017-08-22T13:12:15.264Z,8.68
2017-08-22T13:13:15.580Z,9.26
2017-08-22T13:14:15.244Z,9.04
2017-08-22T13:15:15.532Z,8.76
2017-08-22T13:16:15.546Z,8.31
2017-08-22T13:17:15.504Z,7.99
2017-08-22T13:18:15.248Z,7.89
2017-08-22T13:19:15.190Z,8.17
2017-08-22T13:20:15.482Z,8
2017-08-22T13:21:15.481Z,7.71
2017-08-22T13:22:15.465Z,7.67
2017-08-22T13:23:15.438Z,7.48
2017-08-22T13:24:15.436Z,7.32
2017-08-22T13:25:15.431Z,7.23
2017-08-22T13:26:15.412Z,7.3
2017-08-22T13:27:15.406Z,7.32